sensor_id;sensor_type;location;lat;lon;timestamp;pressure;altitude;pressure_sealevel;temperature;humidity
58658;BME280;44428;45.630;13.786;2022-10-16T00:00:42;101888.03;;;14.15;81.73
58658;BME280;44428;45.630;13.786;2022-10-16T00:03:08;101888.03;;;14.15;81.70
58658;BME280;44428;45.630;13.786;2022-10-16T00:05:40;101883.13;;;14.09;81.89
58658;BME280;44428;45.630;13.786;2022-10-16T00:08:07;101885.50;;;14.14;81.03
58658;BME280;44428;45.630;13.786;2022-10-16T00:10:34;101879.34;;;14.13;81.30
58658;BME280;44428;45.630;13.786;2022-10-16T00:13:00;101881.66;;;14.05;81.76
58658;BME280;44428;45.630;13.786;2022-10-16T00:15:25;101883.03;;;13.98;82.75
58658;BME280;44428;45.630;13.786;2022-10-16T00:17:51;101884.16;;;13.94;83.18
58658;BME280;44428;45.630;13.786;2022-10-16T00:20:17;101885.69;;;13.98;82.51
58658;BME280;44428;45.630;13.786;2022-10-16T00:23:01;101885.88;;;13.95;82.51
58658;BME280;44428;45.630;13.786;2022-10-16T00:25:28;101885.47;;;14.01;81.84
58658;BME280;44428;45.630;13.786;2022-10-16T00:27:54;101880.56;;;13.95;81.85
58658;BME280;44428;45.630;13.786;2022-10-16T00:30:20;101885.88;;;13.95;82.13
58658;BME280;44428;45.630;13.786;2022-10-16T00:32:46;101884.34;;;13.91;82.03
58658;BME280;44428;45.630;13.786;2022-10-16T00:35:11;101890.31;;;13.94;81.66
58658;BME280;44428;45.630;13.786;2022-10-16T00:37:37;101883.22;;;13.95;81.52
58658;BME280;44428;45.630;13.786;2022-10-16T00:40:03;101896.72;;;13.92;81.98
58658;BME280;44428;45.630;13.786;2022-10-16T00:42:29;101900.41;;;13.89;82.75
58658;BME280;44428;45.630;13.786;2022-10-16T00:44:56;101896.16;;;13.87;82.87
58658;BME280;44428;45.630;13.786;2022-10-16T00:47:31;101904.53;;;13.81;82.87
58658;BME280;44428;45.630;13.786;2022-10-16T00:50:22;101906.63;;;13.75;82.96
58658;BME280;44428;45.630;13.786;2022-10-16T00:52:50;101903.38;;;13.70;83.54
58658;BME280;44428;45.630;13.786;2022-10-16T00:55:17;101906.63;;;13.75;82.71
58658;BME280;44428;45.630;13.786;2022-10-16T00:57:44;101905.25;;;13.83;82.13
58658;BME280;44428;45.630;13.786;2022-10-16T01:00:14;101910.56;;;13.83;82.15
58658;BME280;44428;45.630;13.786;2022-10-16T01:02:41;101911.31;;;13.85;82.17
58658;BME280;44428;45.630;13.786;2022-10-16T01:05:07;101906.22;;;13.82;82.20
58658;BME280;44428;45.630;13.786;2022-10-16T01:10:32;101910.81;;;13.65;82.69
58658;BME280;44428;45.630;13.786;2022-10-16T01:13:05;101918.69;;;13.67;83.51
58658;BME280;44428;45.630;13.786;2022-10-16T01:15:42;101921.44;;;13.65;83.39
58658;BME280;44428;45.630;13.786;2022-10-16T01:20:48;101926.00;;;13.63;83.17
58658;BME280;44428;45.630;13.786;2022-10-16T01:29:07;101924.84;;;13.67;82.55
58658;BME280;44428;45.630;13.786;2022-10-16T01:31:38;101933.75;;;13.66;82.52
58658;BME280;44428;45.630;13.786;2022-10-16T01:34:10;101924.09;;;13.65;82.42
58658;BME280;44428;45.630;13.786;2022-10-16T01:36:46;101927.69;;;13.64;82.37
58658;BME280;44428;45.630;13.786;2022-10-16T01:39:14;101932.47;;;13.59;82.50
58658;BME280;44428;45.630;13.786;2022-10-16T01:41:44;101927.34;;;13.56;83.17
58658;BME280;44428;45.630;13.786;2022-10-16T01:44:31;101936.25;;;13.55;83.33
58658;BME280;44428;45.630;13.786;2022-10-16T01:46:58;101940.03;;;13.51;83.61
58658;BME280;44428;45.630;13.786;2022-10-16T01:49:29;101940.25;;;13.48;83.58
58658;BME280;44428;45.630;13.786;2022-10-16T01:51:57;101936.63;;;13.49;83.69
58658;BME280;44428;45.630;13.786;2022-10-16T01:54:27;101937.78;;;13.59;82.83
58658;BME280;44428;45.630;13.786;2022-10-16T01:56:54;101926.94;;;13.62;82.69
58658;BME280;44428;45.630;13.786;2022-10-16T01:59:23;101934.81;;;13.64;82.12
58658;BME280;44428;45.630;13.786;2022-10-16T02:01:55;101937.97;;;13.56;82.90
58658;BME280;44428;45.630;13.786;2022-10-16T02:04:32;101942.50;;;13.54;83.27
58658;BME280;44428;45.630;13.786;2022-10-16T02:06:58;101941.94;;;13.49;83.77
58658;BME280;44428;45.630;13.786;2022-10-16T02:09:25;101943.66;;;13.50;83.88
58658;BME280;44428;45.630;13.786;2022-10-16T02:11:54;101943.66;;;13.50;84.05
58658;BME280;44428;45.630;13.786;2022-10-16T02:14:21;101933.03;;;13.50;83.63
58658;BME280;44428;45.630;13.786;2022-10-16T02:16:50;101936.25;;;13.55;83.69
58658;BME280;44428;45.630;13.786;2022-10-16T02:19:17;101923.72;;;13.57;83.61
58658;BME280;44428;45.630;13.786;2022-10-16T02:21:58;101932.47;;;13.59;83.42
58658;BME280;44428;45.630;13.786;2022-10-16T02:29:44;101942.88;;;13.62;83.16
58658;BME280;44428;45.630;13.786;2022-10-16T02:32:17;101940.13;;;13.64;83.19
58658;BME280;44428;45.630;13.786;2022-10-16T02:34:47;101933.75;;;13.66;82.81
58658;BME280;44428;45.630;13.786;2022-10-16T02:37:14;101934.59;;;13.67;82.80
58658;BME280;44428;45.630;13.786;2022-10-16T02:39:41;101940.50;;;13.72;82.77
58658;BME280;44428;45.630;13.786;2022-10-16T02:42:12;101944.75;;;13.74;82.60
58658;BME280;44428;45.630;13.786;2022-10-16T02:44:38;101947.22;;;13.78;82.52
58658;BME280;44428;45.630;13.786;2022-10-16T02:47:04;101946.81;;;13.84;82.30
58658;BME280;44428;45.630;13.786;2022-10-16T02:49:29;101951.09;;;13.86;82.40
58658;BME280;44428;45.630;13.786;2022-10-16T02:51:55;101953.44;;;13.91;82.14
58658;BME280;44428;45.630;13.786;2022-10-16T02:54:21;101949.66;;;13.95;81.96
58658;BME280;44428;45.630;13.786;2022-10-16T02:56:46;101956.25;;;14.02;81.49
58658;BME280;44428;45.630;13.786;2022-10-16T02:59:12;101946.94;;;14.09;80.70
58658;BME280;44428;45.630;13.786;2022-10-16T03:01:38;101945.69;;;14.15;80.80
58658;BME280;44428;45.630;13.786;2022-10-16T03:04:03;101948.44;;;14.13;81.19
58658;BME280;44428;45.630;13.786;2022-10-16T03:06:29;101953.78;;;14.13;81.09
58658;BME280;44428;45.630;13.786;2022-10-16T03:08:55;101951.63;;;14.18;81.04
58658;BME280;44428;45.630;13.786;2022-10-16T03:11:20;101953.38;;;14.19;81.36
58658;BME280;44428;45.630;13.786;2022-10-16T03:13:46;101955.06;;;14.20;81.21
58658;BME280;44428;45.630;13.786;2022-10-16T03:16:12;101960.16;;;14.24;81.34
58658;BME280;44428;45.630;13.786;2022-10-16T03:18:37;101951.44;;;14.21;81.58
58658;BME280;44428;45.630;13.786;2022-10-16T03:21:03;101952.00;;;14.27;81.67
58658;BME280;44428;45.630;13.786;2022-10-16T03:23:29;101947.44;;;14.29;81.78
58658;BME280;44428;45.630;13.786;2022-10-16T03:25:54;101949.97;;;14.30;81.88
58658;BME280;44428;45.630;13.786;2022-10-16T03:28:20;101948.16;;;14.31;82.32
58658;BME280;44428;45.630;13.786;2022-10-16T03:30:46;101952.16;;;14.38;81.93
58658;BME280;44428;45.630;13.786;2022-10-16T03:33:11;101950.97;;;14.42;81.50
58658;BME280;44428;45.630;13.786;2022-10-16T03:35:37;101947.16;;;14.46;81.13
58658;BME280;44428;45.630;13.786;2022-10-16T03:38:03;101949.59;;;14.49;80.91
58658;BME280;44428;45.630;13.786;2022-10-16T03:40:29;101946.47;;;14.57;80.69
58658;BME280;44428;45.630;13.786;2022-10-16T03:42:57;101950.75;;;14.59;80.42
58658;BME280;44428;45.630;13.786;2022-10-16T03:45:24;101952.22;;;14.63;80.29
58658;BME280;44428;45.630;13.786;2022-10-16T03:47:50;101951.28;;;14.64;80.38
58658;BME280;44428;45.630;13.786;2022-10-16T03:50:16;101953.06;;;14.64;80.67
58658;BME280;44428;45.630;13.786;2022-10-16T03:52:41;101951.28;;;14.64;80.34
58658;BME280;44428;45.630;13.786;2022-10-16T03:55:07;101943.31;;;14.64;80.43
58658;BME280;44428;45.630;13.786;2022-10-16T03:57:33;101952.97;;;14.65;80.17
58658;BME280;44428;45.630;13.786;2022-10-16T03:59:59;101946.91;;;14.63;79.97
58658;BME280;44428;45.630;13.786;2022-10-16T04:02:24;101946.06;;;14.63;79.67
58658;BME280;44428;45.630;13.786;2022-10-16T04:04:50;101954.78;;;14.65;79.76
58658;BME280;44428;45.630;13.786;2022-10-16T04:07:16;101935.63;;;14.60;79.62
58658;BME280;44428;45.630;13.786;2022-10-16T04:09:42;101942.63;;;14.61;79.90
58658;BME280;44428;45.630;13.786;2022-10-16T04:12:07;101942.00;;;14.57;79.84
58658;BME280;44428;45.630;13.786;2022-10-16T04:14:33;101933.94;;;14.59;79.52
58658;BME280;44428;45.630;13.786;2022-10-16T04:16:59;101936.69;;;14.57;79.54
58658;BME280;44428;45.630;13.786;2022-10-16T04:19:25;101940.50;;;14.53;80.06
58658;BME280;44428;45.630;13.786;2022-10-16T04:21:51;101944.28;;;14.49;80.80
58658;BME280;44428;45.630;13.786;2022-10-16T04:24:17;101942.25;;;14.40;81.48
58658;BME280;44428;45.630;13.786;2022-10-16T04:26:43;101931.28;;;14.32;81.85
58658;BME280;44428;45.630;13.786;2022-10-16T04:29:09;101936.59;;;14.32;81.88
58658;BME280;44428;45.630;13.786;2022-10-16T04:31:34;101941.91;;;14.32;82.50
58658;BME280;44428;45.630;13.786;2022-10-16T04:34:00;101938.91;;;14.24;83.00
58658;BME280;44428;45.630;13.786;2022-10-16T04:36:26;101933.03;;;14.18;83.34
58658;BME280;44428;45.630;13.786;2022-10-16T04:38:51;101937.63;;;14.16;83.13
58658;BME280;44428;45.630;13.786;2022-10-16T04:41:17;101943.34;;;14.10;83.10
58658;BME280;44428;45.630;13.786;2022-10-16T04:43:43;101946.53;;;14.15;83.04
58658;BME280;44428;45.630;13.786;2022-10-16T04:46:08;101937.63;;;14.16;82.95
58658;BME280;44428;45.630;13.786;2022-10-16T04:48:35;101944.81;;;14.14;82.77
58658;BME280;44428;45.630;13.786;2022-10-16T04:51:01;101952.03;;;14.12;82.76
58658;BME280;44428;45.630;13.786;2022-10-16T04:53:27;101944.59;;;14.05;82.93
58658;BME280;44428;45.630;13.786;2022-10-16T04:55:52;101952.25;;;14.09;83.14
58658;BME280;44428;45.630;13.786;2022-10-16T04:58:18;101946.41;;;14.04;83.67
58658;BME280;44428;45.630;13.786;2022-10-16T05:00:44;101953.28;;;14.07;84.22
58658;BME280;44428;45.630;13.786;2022-10-16T05:03:12;101947.13;;;14.06;84.49
58658;BME280;44428;45.630;13.786;2022-10-16T05:05:42;101948.66;;;14.10;84.15
58658;BME280;44428;45.630;13.786;2022-10-16T05:08:09;101945.44;;;14.05;84.40
58658;BME280;44428;45.630;13.786;2022-10-16T05:10:34;101949.25;;;14.01;84.79
58658;BME280;44428;45.630;13.786;2022-10-16T05:13:00;101953.03;;;13.97;85.14
58658;BME280;44428;45.630;13.786;2022-10-16T05:15:25;101957.97;;;14.03;84.79
58658;BME280;44428;45.630;13.786;2022-10-16T05:17:55;101948.69;;;13.96;85.19
58658;BME280;44428;45.630;13.786;2022-10-16T05:20:22;101942.22;;;14.00;84.54
58658;BME280;44428;45.630;13.786;2022-10-16T05:22:48;101945.84;;;13.99;84.75
58658;BME280;44428;45.630;13.786;2022-10-16T05:25:14;101951.16;;;13.99;84.81
58658;BME280;44428;45.630;13.786;2022-10-16T05:27:39;101951.22;;;13.97;84.68
58658;BME280;44428;45.630;13.786;2022-10-16T05:30:06;101952.66;;;14.03;84.27
58658;BME280;44428;45.630;13.786;2022-10-16T05:32:31;101959.28;;;14.10;84.15
58658;BME280;44428;45.630;13.786;2022-10-16T05:34:57;101955.66;;;14.11;84.17
58658;BME280;44428;45.630;13.786;2022-10-16T05:37:26;101965.91;;;14.17;83.53
58658;BME280;44428;45.630;13.786;2022-10-16T05:39:52;101966.34;;;14.24;83.21
58658;BME280;44428;45.630;13.786;2022-10-16T05:42:18;101961.88;;;14.25;83.15
58658;BME280;44428;45.630;13.786;2022-10-16T05:44:44;101963.41;;;14.29;82.94
58658;BME280;44428;45.630;13.786;2022-10-16T05:47:10;101966.56;;;14.34;82.56
58658;BME280;44428;45.630;13.786;2022-10-16T05:49:37;101968.75;;;14.41;82.14
58658;BME280;44428;45.630;13.786;2022-10-16T05:52:03;101971.09;;;14.46;82.08
58658;BME280;44428;45.630;13.786;2022-10-16T05:54:29;101977.38;;;14.45;81.92
58658;BME280;44428;45.630;13.786;2022-10-16T05:56:55;101977.91;;;14.50;81.96
58658;BME280;44428;45.630;13.786;2022-10-16T05:59:20;101984.75;;;14.54;80.99
58658;BME280;44428;45.630;13.786;2022-10-16T06:01:46;101991.78;;;14.55;80.93
58658;BME280;44428;45.630;13.786;2022-10-16T06:04:12;101989.66;;;14.60;80.17
58658;BME280;44428;45.630;13.786;2022-10-16T06:06:37;101985.47;;;14.71;79.31
58658;BME280;44428;45.630;13.786;2022-10-16T06:09:04;101990.38;;;14.77;79.21
58658;BME280;44428;45.630;13.786;2022-10-16T06:11:31;101989.53;;;14.89;78.25
58658;BME280;44428;45.630;13.786;2022-10-16T06:13:58;101992.50;;;14.97;77.92
58658;BME280;44428;45.630;13.786;2022-10-16T06:16:26;102004.25;;;15.07;77.93
58658;BME280;44428;45.630;13.786;2022-10-16T06:18:53;102002.00;;;15.14;78.01
58658;BME280;44428;45.630;13.786;2022-10-16T06:21:21;102001.66;;;15.19;78.04
58658;BME280;44428;45.630;13.786;2022-10-16T06:23:47;102011.91;;;15.25;77.93
58658;BME280;44428;45.630;13.786;2022-10-16T06:26:16;102016.19;;;15.40;77.26
58658;BME280;44428;45.630;13.786;2022-10-16T06:28:42;102015.31;;;15.52;76.78
58658;BME280;44428;45.630;13.786;2022-10-16T06:31:09;102026.41;;;15.72;75.99
58658;BME280;44428;45.630;13.786;2022-10-16T06:33:36;102023.38;;;15.89;75.77
58658;BME280;44428;45.630;13.786;2022-10-16T06:36:07;102034.84;;;16.02;75.03
58658;BME280;44428;45.630;13.786;2022-10-16T06:38:34;102044.41;;;16.18;74.79
58658;BME280;44428;45.630;13.786;2022-10-16T06:41:00;102050.34;;;16.34;74.18
58658;BME280;44428;45.630;13.786;2022-10-16T06:43:28;102051.28;;;16.46;73.64
58658;BME280;44428;45.630;13.786;2022-10-16T06:45:56;102050.00;;;16.63;73.23
58658;BME280;44428;45.630;13.786;2022-10-16T06:48:23;102046.97;;;16.80;72.44
58658;BME280;44428;45.630;13.786;2022-10-16T06:53:22;102059.41;;;17.04;71.45
58658;BME280;44428;45.630;13.786;2022-10-16T06:55:47;102063.59;;;17.19;70.54
58658;BME280;44428;45.630;13.786;2022-10-16T06:58:13;102071.38;;;17.33;69.45
58658;BME280;44428;45.630;13.786;2022-10-16T07:00:39;102071.13;;;17.36;68.56
58658;BME280;44428;45.630;13.786;2022-10-16T07:03:04;102072.38;;;17.44;67.82
58658;BME280;44428;45.630;13.786;2022-10-16T07:05:30;102077.25;;;17.50;67.22
58658;BME280;44428;45.630;13.786;2022-10-16T07:07:56;102092.31;;;17.62;66.59
58658;BME280;44428;45.630;13.786;2022-10-16T07:10:21;102085.81;;;17.77;65.85
58658;BME280;44428;45.630;13.786;2022-10-16T07:12:49;102092.34;;;17.84;65.28
58658;BME280;44428;45.630;13.786;2022-10-16T07:15:15;102093.81;;;18.00;65.14
58658;BME280;44428;45.630;13.786;2022-10-16T07:17:41;102099.16;;;18.11;65.28
58658;BME280;44428;45.630;13.786;2022-10-16T07:20:07;102093.88;;;18.43;64.96
58658;BME280;44428;45.630;13.786;2022-10-16T07:22:32;102096.81;;;18.84;64.12
58658;BME280;44428;45.630;13.786;2022-10-16T07:24:58;102095.69;;;19.18;63.37
58658;BME280;44428;45.630;13.786;2022-10-16T07:27:24;102104.84;;;19.37;62.53
58658;BME280;44428;45.630;13.786;2022-10-16T07:29:50;102110.44;;;19.76;61.23
58658;BME280;44428;45.630;13.786;2022-10-16T07:32:16;102111.97;;;20.40;59.57
58658;BME280;44428;45.630;13.786;2022-10-16T07:34:42;102115.28;;;21.21;56.78
58658;BME280;44428;45.630;13.786;2022-10-16T07:37:08;102105.72;;;22.12;53.88
58658;BME280;44428;45.630;13.786;2022-10-16T07:39:33;102110.34;;;22.83;51.51
58658;BME280;44428;45.630;13.786;2022-10-16T07:41:59;102116.63;;;23.46;50.10
58658;BME280;44428;45.630;13.786;2022-10-16T07:44:25;102122.66;;;23.92;48.01
58658;BME280;44428;45.630;13.786;2022-10-16T07:46:50;102120.81;;;24.35;47.96
58658;BME280;44428;45.630;13.786;2022-10-16T07:49:16;102119.22;;;24.58;46.85
58658;BME280;44428;45.630;13.786;2022-10-16T07:51:42;102126.88;;;24.96;47.24
58658;BME280;44428;45.630;13.786;2022-10-16T07:54:09;102127.41;;;25.16;46.14
58658;BME280;44428;45.630;13.786;2022-10-16T07:56:35;102130.09;;;25.40;45.35
58658;BME280;44428;45.630;13.786;2022-10-16T07:59:00;102135.19;;;25.27;45.01
58658;BME280;44428;45.630;13.786;2022-10-16T08:01:26;102128.41;;;25.23;44.62
58658;BME280;44428;45.630;13.786;2022-10-16T08:03:52;102132.16;;;25.22;44.07
58658;BME280;44428;45.630;13.786;2022-10-16T08:06:20;102135.16;;;25.35;43.34
58658;BME280;44428;45.630;13.786;2022-10-16T08:08:46;102136.00;;;25.60;43.37
58658;BME280;44428;45.630;13.786;2022-10-16T08:11:13;102132.72;;;25.97;42.58
58658;BME280;44428;45.630;13.786;2022-10-16T08:13:40;102139.44;;;26.01;43.85
58658;BME280;44428;45.630;13.786;2022-10-16T08:16:06;102140.28;;;26.41;41.54
58658;BME280;44428;45.630;13.786;2022-10-16T08:18:38;102144.94;;;26.64;41.66
58658;BME280;44428;45.630;13.786;2022-10-16T08:21:05;102146.41;;;26.98;40.93
58658;BME280;44428;45.630;13.786;2022-10-16T08:23:32;102149.00;;;27.52;39.81
58658;BME280;44428;45.630;13.786;2022-10-16T08:26:03;102156.41;;;28.32;38.02
58658;BME280;44428;45.630;13.786;2022-10-16T08:28:29;102160.13;;;28.97;36.46
58658;BME280;44428;45.630;13.786;2022-10-16T08:30:55;102151.00;;;29.54;35.46
58658;BME280;44428;45.630;13.786;2022-10-16T08:33:22;102156.56;;;29.67;34.74
58658;BME280;44428;45.630;13.786;2022-10-16T08:35:54;102145.47;;;30.10;34.25
58658;BME280;44428;45.630;13.786;2022-10-16T08:38:20;102157.41;;;30.51;32.77
58658;BME280;44428;45.630;13.786;2022-10-16T08:40:46;102153.34;;;30.95;31.96
58658;BME280;44428;45.630;13.786;2022-10-16T08:48:27;102155.03;;;31.69;31.18
58658;BME280;44428;45.630;13.786;2022-10-16T08:50:55;102153.75;;;31.78;30.73
58658;BME280;44428;45.630;13.786;2022-10-16T08:53:29;102144.06;;;31.96;30.65
58658;BME280;44428;45.630;13.786;2022-10-16T08:55:56;102149.84;;;32.19;30.75
58658;BME280;44428;45.630;13.786;2022-10-16T08:58:28;102157.72;;;32.40;29.16
58658;BME280;44428;45.630;13.786;2022-10-16T09:01:00;102153.09;;;32.48;29.89
58658;BME280;44428;45.630;13.786;2022-10-16T09:16:58;102176.03;;;29.99;33.53
58658;BME280;44428;45.630;13.786;2022-10-16T09:19:41;102172.84;;;29.11;34.97
58658;BME280;44428;45.630;13.786;2022-10-16T09:22:15;102176.41;;;28.54;36.09
58658;BME280;44428;45.630;13.786;2022-10-16T09:24:42;102171.38;;;28.94;35.93
58658;BME280;44428;45.630;13.786;2022-10-16T09:27:12;102182.56;;;29.20;35.49
58658;BME280;44428;45.630;13.786;2022-10-16T09:29:39;102175.13;;;28.71;36.15
58658;BME280;44428;45.630;13.786;2022-10-16T09:32:18;102174.47;;;28.69;35.87
58658;BME280;44428;45.630;13.786;2022-10-16T09:34:53;102185.63;;;27.94;37.70
58658;BME280;44428;45.630;13.786;2022-10-16T09:37:22;102185.84;;;27.31;38.35
58658;BME280;44428;45.630;13.786;2022-10-16T09:39:54;102176.16;;;27.52;39.10
58658;BME280;44428;45.630;13.786;2022-10-16T09:42:23;102189.69;;;29.21;35.94
58658;BME280;44428;45.630;13.786;2022-10-16T09:44:52;102189.16;;;30.17;34.65
58658;BME280;44428;45.630;13.786;2022-10-16T09:47:23;102185.28;;;31.08;32.32
58658;BME280;44428;45.630;13.786;2022-10-16T09:49:55;102186.94;;;31.88;32.22
58658;BME280;44428;45.630;13.786;2022-10-16T09:52:22;102192.56;;;32.20;31.76
58658;BME280;44428;45.630;13.786;2022-10-16T09:54:52;102189.56;;;32.73;31.77
58658;BME280;44428;45.630;13.786;2022-10-16T09:57:18;102188.34;;;32.69;31.16
58658;BME280;44428;45.630;13.786;2022-10-16T09:59:52;102188.56;;;33.06;30.95
58658;BME280;44428;45.630;13.786;2022-10-16T10:02:38;102190.16;;;32.82;31.61
58658;BME280;44428;45.630;13.786;2022-10-16T10:05:18;102189.69;;;33.23;30.32
58658;BME280;44428;45.630;13.786;2022-10-16T10:07:54;102188.06;;;33.66;30.00
58658;BME280;44428;45.630;13.786;2022-10-16T10:10:32;102180.53;;;33.98;29.46
58658;BME280;44428;45.630;13.786;2022-10-16T10:12:58;102190.13;;;33.70;29.09
58658;BME280;44428;45.630;13.786;2022-10-16T10:15:25;102188.59;;;33.56;29.86
58658;BME280;44428;45.630;13.786;2022-10-16T10:17:55;102182.22;;;33.62;29.36
58658;BME280;44428;45.630;13.786;2022-10-16T10:20:27;102182.25;;;33.56;29.46
58658;BME280;44428;45.630;13.786;2022-10-16T10:22:54;102179.59;;;33.67;29.46
58658;BME280;44428;45.630;13.786;2022-10-16T10:35:49;102175.84;;;32.42;31.24
58658;BME280;44428;45.630;13.786;2022-10-16T10:47:29;102170.34;;;32.87;31.31
58658;BME280;44428;45.630;13.786;2022-10-16T11:06:32;102154.00;;;32.28;31.46
58658;BME280;44428;45.630;13.786;2022-10-16T11:09:00;102154.19;;;32.78;30.90
58658;BME280;44428;45.630;13.786;2022-10-16T11:11:35;102154.19;;;32.78;31.33
58658;BME280;44428;45.630;13.786;2022-10-16T11:25:14;102152.84;;;32.11;32.41
58658;BME280;44428;45.630;13.786;2022-10-16T11:30:27;102154.34;;;33.15;30.50
58658;BME280;44428;45.630;13.786;2022-10-16T11:38:04;102148.56;;;33.05;31.02
58658;BME280;44428;45.630;13.786;2022-10-16T11:40:38;102146.41;;;33.07;30.76
58658;BME280;44428;45.630;13.786;2022-10-16T11:45:45;102140.59;;;32.20;32.23
58658;BME280;44428;45.630;13.786;2022-10-16T11:48:20;102139.59;;;32.53;31.98
58658;BME280;44428;45.630;13.786;2022-10-16T11:51:02;102139.19;;;32.56;31.81
58658;BME280;44428;45.630;13.786;2022-10-16T11:56:05;102136.53;;;32.74;31.20
58658;BME280;44428;45.630;13.786;2022-10-16T11:58:57;102138.63;;;33.04;30.15
58658;BME280;44428;45.630;13.786;2022-10-16T12:01:38;102137.19;;;32.95;30.80
58658;BME280;44428;45.630;13.786;2022-10-16T12:04:20;102135.91;;;33.04;29.50
58658;BME280;44428;45.630;13.786;2022-10-16T12:07:02;102139.31;;;32.99;29.82
58658;BME280;44428;45.630;13.786;2022-10-16T12:09:36;102133.50;;;33.14;29.38
58658;BME280;44428;45.630;13.786;2022-10-16T12:12:03;102127.44;;;33.30;29.04
58658;BME280;44428;45.630;13.786;2022-10-16T12:17:03;102125.94;;;33.10;29.63
58658;BME280;44428;45.630;13.786;2022-10-16T12:19:31;102137.50;;;33.37;28.58
58658;BME280;44428;45.630;13.786;2022-10-16T12:21:59;102137.47;;;33.18;29.07
58658;BME280;44428;45.630;13.786;2022-10-16T12:24:41;102130.78;;;33.14;30.46
58658;BME280;44428;45.630;13.786;2022-10-16T12:27:29;102129.63;;;32.97;29.99
58658;BME280;44428;45.630;13.786;2022-10-16T12:30:01;102135.38;;;32.57;31.29
58658;BME280;44428;45.630;13.786;2022-10-16T12:32:37;102135.22;;;31.93;32.45
58658;BME280;44428;45.630;13.786;2022-10-16T12:35:06;102129.88;;;32.12;32.34
58658;BME280;44428;45.630;13.786;2022-10-16T12:37:42;102138.19;;;31.72;32.58
58658;BME280;44428;45.630;13.786;2022-10-16T12:40:29;102141.19;;;31.11;33.63
58658;BME280;44428;45.630;13.786;2022-10-16T12:42:56;102142.44;;;31.15;33.83
58658;BME280;44428;45.630;13.786;2022-10-16T12:45:33;102144.50;;;30.86;34.39
58658;BME280;44428;45.630;13.786;2022-10-16T12:48:01;102139.06;;;30.99;33.97
58658;BME280;44428;45.630;13.786;2022-10-16T12:50:31;102139.41;;;30.76;34.21
58658;BME280;44428;45.630;13.786;2022-10-16T12:52:58;102146.03;;;30.34;35.43
58658;BME280;44428;45.630;13.786;2022-10-16T12:55:24;102148.53;;;29.59;36.94
58658;BME280;44428;45.630;13.786;2022-10-16T12:58:20;102153.91;;;29.53;37.06
58658;BME280;44428;45.630;13.786;2022-10-16T13:01:37;102152.94;;;29.32;37.88
58658;BME280;44428;45.630;13.786;2022-10-16T13:04:12;102160.50;;;29.37;38.09
58658;BME280;44428;45.630;13.786;2022-10-16T13:15:26;102151.03;;;28.02;40.51
58658;BME280;44428;45.630;13.786;2022-10-16T13:23:34;102158.81;;;28.20;40.23
58658;BME280;44428;45.630;13.786;2022-10-16T13:29:00;102163.50;;;28.26;40.22
58658;BME280;44428;45.630;13.786;2022-10-16T13:31:28;102161.91;;;27.50;41.92
58658;BME280;44428;45.630;13.786;2022-10-16T13:33:56;102167.16;;;27.36;42.22
58658;BME280;44428;45.630;13.786;2022-10-16T13:36:48;102166.13;;;26.91;44.18
58658;BME280;44428;45.630;13.786;2022-10-16T13:39:26;102170.41;;;27.09;44.16
58658;BME280;44428;45.630;13.786;2022-10-16T13:42:22;102173.69;;;26.73;43.61
58658;BME280;44428;45.630;13.786;2022-10-16T13:44:51;102168.75;;;26.45;46.02
58658;BME280;44428;45.630;13.786;2022-10-16T13:49:46;102176.06;;;25.89;47.23
58658;BME280;44428;45.630;13.786;2022-10-16T13:52:20;102179.47;;;25.83;47.26
58658;BME280;44428;45.630;13.786;2022-10-16T13:54:47;102184.19;;;25.89;47.79
58658;BME280;44428;45.630;13.786;2022-10-16T13:57:16;102184.88;;;25.91;47.52
58658;BME280;44428;45.630;13.786;2022-10-16T13:59:42;102178.75;;;25.89;47.09
58658;BME280;44428;45.630;13.786;2022-10-16T14:04:53;102178.44;;;25.59;48.09
58658;BME280;44428;45.630;13.786;2022-10-16T14:07:31;102179.84;;;25.15;49.27
58658;BME280;44428;45.630;13.786;2022-10-16T14:10:06;102188.75;;;25.07;49.65
58658;BME280;44428;45.630;13.786;2022-10-16T14:12:43;102181.44;;;24.99;50.01
58658;BME280;44428;45.630;13.786;2022-10-16T14:15:16;102183.84;;;24.94;50.63
58658;BME280;44428;45.630;13.786;2022-10-16T14:17:45;102186.47;;;24.78;50.52
58658;BME280;44428;45.630;13.786;2022-10-16T14:20:15;102184.59;;;24.62;51.19
58658;BME280;44428;45.630;13.786;2022-10-16T14:22:42;102186.94;;;24.57;50.90
58658;BME280;44428;45.630;13.786;2022-10-16T14:27:57;102184.03;;;24.16;52.22
58658;BME280;44428;45.630;13.786;2022-10-16T14:30:24;102184.81;;;24.00;52.76
58658;BME280;44428;45.630;13.786;2022-10-16T14:35:32;102181.97;;;23.75;53.37
58658;BME280;44428;45.630;13.786;2022-10-16T14:38:00;102184.56;;;23.67;53.45
58658;BME280;44428;45.630;13.786;2022-10-16T14:40:29;102188.91;;;23.60;53.52
58658;BME280;44428;45.630;13.786;2022-10-16T14:42:56;102187.84;;;23.53;53.78
58658;BME280;44428;45.630;13.786;2022-10-16T14:45:26;102183.00;;;23.39;54.34
58658;BME280;44428;45.630;13.786;2022-10-16T14:47:55;102177.91;;;23.18;54.99
58658;BME280;44428;45.630;13.786;2022-10-16T14:50:21;102185.66;;;22.95;54.86
58658;BME280;44428;45.630;13.786;2022-10-16T14:52:47;102180.59;;;22.82;55.82
58658;BME280;44428;45.630;13.786;2022-10-16T14:55:14;102184.09;;;22.64;56.52
58658;BME280;44428;45.630;13.786;2022-10-16T14:57:40;102182.63;;;22.52;57.04